Time;durP1;ratioP1;P1;durP2;ratioP2;P2;SDS_P1;SDS_P2;PMS_P1;PMS_P2;Temp;Humidity;BMP_temperature;BMP_pressure;BME280_temperature;BME280_humidity;BME280_pressure;Samples;Min_cycle;Max_cycle;Signal;HPM_P1;HPM_P2
2023/04/30 00:01:55;;;;;;;12.88;8.93;;;;;;;;;;5165331;27;20491;-61
2023/04/30 00:04:21;;;;;;;12.60;8.45;;;;;;;;;;5163934;27;20078;-60
2023/04/30 00:06:47;;;;;;;12.05;7.65;;;;;;;;;;5163546;27;20522;-61
2023/04/30 00:09:14;;;;;;;15.93;8.48;;;;;;;;;;5163391;27;20131;-61
2023/04/30 00:11:40;;;;;;;14.05;8.50;;;;;;;;;;5164242;27;20054;-61
2023/04/30 00:14:07;;;;;;;14.05;8.43;;;;;;;;;;5164198;27;20089;-61
2023/04/30 00:16:33;;;;;;;11.75;7.90;;;;;;;;;;5165365;27;20050;-60
2023/04/30 00:19:00;;;;;;;13.48;8.38;;;;;;;;;;5162624;27;20098;-61
2023/04/30 00:21:26;;;;;;;13.55;7.85;;;;;;;;;;5164889;27;20062;-61
2023/04/30 00:23:53;;;;;;;14.52;8.10;;;;;;;;;;5164550;27;20082;-61
2023/04/30 00:26:19;;;;;;;12.40;7.90;;;;;;;;;;5162901;27;20261;-61
2023/04/30 00:28:45;;;;;;;12.32;7.65;;;;;;;;;;5162138;27;20644;-61
2023/04/30 00:31:12;;;;;;;11.73;7.63;;;;;;;;;;5141731;27;20050;-61
2023/04/30 00:33:38;;;;;;;14.48;8.02;;;;;;;;;;5157241;27;20051;-61
2023/04/30 00:36:05;;;;;;;12.50;7.72;;;;;;;;;;5162638;27;20535;-60
2023/04/30 00:38:31;;;;;;;13.75;7.95;;;;;;;;;;5163386;27;20061;-61
2023/04/30 00:40:57;;;;;;;9.98;7.57;;;;;;;;;;5163091;27;20042;-62
2023/04/30 00:43:24;;;;;;;9.52;7.22;;;;;;;;;;5145764;27;20051;-61
2023/04/30 00:45:51;;;;;;;11.55;7.70;;;;;;;;;;5165136;27;20134;-61
2023/04/30 00:48:18;;;;;;;12.52;7.68;;;;;;;;;;5164429;27;20119;-61
2023/04/30 00:50:44;;;;;;;13.63;8.27;;;;;;;;;;5163594;27;20066;-62
2023/04/30 00:53:11;;;;;;;10.65;6.93;;;;;;;;;;5162716;27;20612;-61
2023/04/30 00:55:38;;;;;;;11.25;7.68;;;;;;;;;;5163795;27;20057;-60
2023/04/30 00:58:04;;;;;;;14.82;7.60;;;;;;;;;;5163786;27;20112;-61
2023/04/30 01:00:31;;;;;;;12.10;7.32;;;;;;;;;;5162807;27;20509;-61
2023/04/30 01:02:57;;;;;;;12.98;7.72;;;;;;;;;;5163103;27;20514;-59
2023/04/30 01:05:25;;;;;;;10.63;8.00;;;;;;;;;;5163603;27;20049;-61
2023/04/30 01:07:52;;;;;;;12.25;7.53;;;;;;;;;;5160387;27;20516;-60
2023/04/30 01:10:18;;;;;;;13.57;8.32;;;;;;;;;;5161817;27;20086;-60
2023/04/30 01:12:45;;;;;;;16.17;8.82;;;;;;;;;;5163292;27;20047;-61
2023/04/30 01:15:25;;;;;;;11.63;8.05;;;;;;;;;;5163047;27;20133;-60
2023/04/30 01:17:54;;;;;;;12.40;7.95;;;;;;;;;;5164410;27;20107;-60
2023/04/30 01:20:22;;;;;;;9.80;7.13;;;;;;;;;;5162699;27;20061;-60
2023/04/30 01:22:58;;;;;;;13.75;8.43;;;;;;;;;;5162310;27;20046;-60
2023/04/30 01:25:24;;;;;;;11.73;7.47;;;;;;;;;;5164296;27;20530;-61
2023/04/30 01:27:51;;;;;;;12.70;7.60;;;;;;;;;;5161544;27;20178;-60
2023/04/30 01:30:17;;;;;;;10.90;7.72;;;;;;;;;;5132535;27;20047;-61
2023/04/30 01:32:44;;;;;;;11.57;8.30;;;;;;;;;;5164288;27;20554;-61
2023/04/30 01:35:11;;;;;;;13.95;7.55;;;;;;;;;;5162994;27;20062;-61
2023/04/30 01:37:42;;;;;;;11.57;8.00;;;;;;;;;;5161708;27;20362;-61
2023/04/30 01:40:21;;;;;;;10.43;7.15;;;;;;;;;;5147679;27;20471;-59
2023/04/30 01:43:04;;;;;;;10.63;8.00;;;;;;;;;;5162576;27;20580;-61
2023/04/30 01:45:30;;;;;;;16.00;8.00;;;;;;;;;;5163266;27;20061;-60
2023/04/30 01:48:20;;;;;;;12.60;8.25;;;;;;;;;;5165099;27;20055;-60
2023/04/30 01:50:48;;;;;;;12.90;7.82;;;;;;;;;;5160168;27;20054;-60
2023/04/30 01:53:18;;;;;;;13.40;7.90;;;;;;;;;;5164372;27;20431;-61
2023/04/30 01:55:56;;;;;;;14.13;8.65;;;;;;;;;;5165265;27;20050;-60
2023/04/30 01:58:23;;;;;;;17.15;9.95;;;;;;;;;;5161406;27;20094;-61
2023/04/30 02:00:50;;;;;;;10.82;8.10;;;;;;;;;;5160915;27;20051;-60
2023/04/30 02:03:17;;;;;;;15.35;8.98;;;;;;;;;;5166959;27;20060;-61
2023/04/30 02:05:43;;;;;;;13.05;8.93;;;;;;;;;;5166351;27;20055;-61
2023/04/30 02:08:10;;;;;;;9.07;7.47;;;;;;;;;;5167591;27;20509;-60
2023/04/30 02:10:36;;;;;;;12.73;8.43;;;;;;;;;;5165237;27;20061;-60
2023/04/30 02:13:02;;;;;;;13.60;9.10;;;;;;;;;;5167137;27;20057;-61
2023/04/30 02:15:29;;;;;;;13.38;8.63;;;;;;;;;;5161580;27;20050;-61
2023/04/30 02:17:55;;;;;;;12.25;8.20;;;;;;;;;;5147311;27;20055;-60
2023/04/30 02:20:21;;;;;;;10.52;7.00;;;;;;;;;;5165157;27;20098;-61
2023/04/30 02:22:48;;;;;;;14.45;8.80;;;;;;;;;;5165218;27;20050;-60
2023/04/30 02:25:14;;;;;;;11.50;7.70;;;;;;;;;;5165916;27;20050;-61
2023/04/30 02:27:41;;;;;;;10.60;6.97;;;;;;;;;;5165653;27;20074;-60
2023/04/30 02:30:07;;;;;;;11.02;6.75;;;;;;;;;;5157944;27;20071;-61
2023/04/30 02:32:34;;;;;;;10.35;7.45;;;;;;;;;;5159096;27;20054;-60
2023/04/30 02:35:00;;;;;;;11.80;6.95;;;;;;;;;;5165812;27;20074;-60
2023/04/30 02:37:26;;;;;;;11.07;6.70;;;;;;;;;;5159754;27;20623;-61
2023/04/30 02:39:53;;;;;;;11.73;7.07;;;;;;;;;;5165259;27;20058;-61
2023/04/30 02:42:20;;;;;;;10.07;7.63;;;;;;;;;;5166511;27;20059;-61
2023/04/30 02:44:46;;;;;;;9.88;6.70;;;;;;;;;;5164690;27;20061;-60
2023/04/30 02:47:12;;;;;;;9.63;6.63;;;;;;;;;;5166101;27;20063;-61
2023/04/30 02:49:39;;;;;;;10.60;7.13;;;;;;;;;;5163765;27;20067;-61
2023/04/30 02:52:08;;;;;;;10.85;7.00;;;;;;;;;;5166361;27;20076;-61
2023/04/30 02:54:34;;;;;;;10.20;6.28;;;;;;;;;;5164879;27;20054;-60
2023/04/30 02:57:01;;;;;;;10.00;6.65;;;;;;;;;;5158847;27;20050;-61
2023/04/30 02:59:27;;;;;;;11.00;6.95;;;;;;;;;;5165559;27;20669;-60
2023/04/30 03:01:54;;;;;;;7.70;6.13;;;;;;;;;;5166312;27;20511;-61
2023/04/30 03:04:20;;;;;;;9.18;6.35;;;;;;;;;;5164205;27;20050;-61
2023/04/30 03:06:47;;;;;;;9.07;6.78;;;;;;;;;;5146135;27;20079;-61
2023/04/30 03:09:13;;;;;;;10.77;7.47;;;;;;;;;;5155274;27;20142;-61
2023/04/30 03:11:40;;;;;;;9.57;6.00;;;;;;;;;;5164047;27;20494;-60
2023/04/30 03:14:06;;;;;;;11.27;7.32;;;;;;;;;;5162999;27;20046;-61
2023/04/30 03:16:32;;;;;;;12.80;6.35;;;;;;;;;;5165265;27;20057;-61
2023/04/30 03:18:59;;;;;;;10.38;6.03;;;;;;;;;;5167335;27;20057;-61
2023/04/30 03:21:26;;;;;;;9.27;6.55;;;;;;;;;;5164711;27;20135;-61
2023/04/30 03:23:52;;;;;;;12.23;6.32;;;;;;;;;;5165472;27;20078;-60
2023/04/30 03:26:19;;;;;;;8.48;5.57;;;;;;;;;;5164168;27;20043;-61
2023/04/30 03:28:46;;;;;;;8.77;6.15;;;;;;;;;;5145379;27;20077;-61
2023/04/30 03:31:12;;;;;;;10.63;6.70;;;;;;;;;;5159545;27;20055;-60
2023/04/30 03:33:39;;;;;;;14.10;7.03;;;;;;;;;;5164902;27;20111;-61
2023/04/30 03:36:05;;;;;;;10.70;6.78;;;;;;;;;;5163817;27;20055;-61
2023/04/30 03:38:31;;;;;;;8.00;6.03;;;;;;;;;;5165917;27;20542;-61
2023/04/30 03:41:00;;;;;;;9.68;6.25;;;;;;;;;;5165400;27;20778;-61
2023/04/30 03:43:26;;;;;;;9.45;6.65;;;;;;;;;;5164874;27;20385;-61
2023/04/30 03:45:52;;;;;;;9.10;5.93;;;;;;;;;;5162573;27;20043;-61
2023/04/30 03:48:19;;;;;;;9.40;6.20;;;;;;;;;;5166291;27;20760;-60
2023/04/30 03:50:45;;;;;;;9.77;5.97;;;;;;;;;;5164890;27;20849;-61
2023/04/30 03:53:12;;;;;;;8.43;6.15;;;;;;;;;;5164574;27;20513;-61
2023/04/30 03:55:38;;;;;;;12.32;6.50;;;;;;;;;;5144914;27;20568;-61
2023/04/30 03:58:05;;;;;;;12.63;6.95;;;;;;;;;;5165621;27;20425;-61
2023/04/30 04:00:31;;;;;;;10.60;6.25;;;;;;;;;;5164526;27;20561;-61
2023/04/30 04:02:58;;;;;;;10.27;6.78;;;;;;;;;;5165246;27;20142;-61
2023/04/30 04:05:25;;;;;;;13.25;7.22;;;;;;;;;;5164848;27;20077;-60
2023/04/30 04:07:52;;;;;;;8.80;5.85;;;;;;;;;;5163535;27;20141;-60
2023/04/30 04:10:18;;;;;;;9.02;6.18;;;;;;;;;;5164396;27;20598;-61
2023/04/30 04:12:45;;;;;;;10.18;6.20;;;;;;;;;;5160836;27;20414;-61
2023/04/30 04:15:12;;;;;;;9.38;5.85;;;;;;;;;;5162645;27;20066;-61
2023/04/30 04:17:38;;;;;;;9.02;6.20;;;;;;;;;;5164253;27;20054;-61
2023/04/30 04:20:05;;;;;;;8.50;5.95;;;;;;;;;;5164610;27;20054;-61
2023/04/30 04:22:31;;;;;;;8.45;6.28;;;;;;;;;;5161886;27;20051;-61
2023/04/30 04:24:58;;;;;;;10.55;6.43;;;;;;;;;;5164916;27;20410;-60
2023/04/30 04:27:25;;;;;;;6.82;5.68;;;;;;;;;;5142199;27;20059;-61
2023/04/30 04:29:53;;;;;;;9.38;6.15;;;;;;;;;;5153770;27;20054;-61
2023/04/30 04:32:21;;;;;;;10.95;6.95;;;;;;;;;;5150006;27;20047;-60
2023/04/30 04:34:48;;;;;;;11.18;6.85;;;;;;;;;;5160956;27;20061;-61
2023/04/30 04:37:16;;;;;;;7.75;6.00;;;;;;;;;;5163102;27;20598;-61
2023/04/30 04:39:43;;;;;;;11.13;5.95;;;;;;;;;;5164025;27;20576;-61
2023/04/30 04:42:10;;;;;;;11.65;7.72;;;;;;;;;;5165386;27;20592;-61
2023/04/30 04:44:37;;;;;;;8.40;6.38;;;;;;;;;;5143876;27;20046;-61
2023/04/30 04:47:03;;;;;;;10.80;6.88;;;;;;;;;;5164738;27;20146;-61
2023/04/30 04:49:30;;;;;;;12.05;6.55;;;;;;;;;;5165562;27;20134;-60
2023/04/30 04:51:56;;;;;;;7.80;6.50;;;;;;;;;;5164689;27;20057;-61
2023/04/30 04:54:22;;;;;;;9.68;6.47;;;;;;;;;;5164080;27;20050;-61
2023/04/30 04:56:48;;;;;;;8.63;6.30;;;;;;;;;;5163083;27;20228;-61
2023/04/30 04:59:16;;;;;;;10.52;6.68;;;;;;;;;;5162096;27;20047;-61
2023/04/30 05:01:42;;;;;;;11.20;6.88;;;;;;;;;;5143080;27;20365;-61
2023/04/30 05:04:09;;;;;;;9.10;6.93;;;;;;;;;;5165475;27;20138;-61
2023/04/30 05:06:35;;;;;;;9.55;5.75;;;;;;;;;;5159145;27;20050;-61
2023/04/30 05:09:04;;;;;;;10.43;6.20;;;;;;;;;;5163171;27;20141;-61
2023/04/30 05:11:30;;;;;;;9.45;6.68;;;;;;;;;;5162026;27;20096;-61
2023/04/30 05:13:57;;;;;;;8.30;5.90;;;;;;;;;;5164818;27;20055;-61
2023/04/30 05:16:23;;;;;;;9.90;6.63;;;;;;;;;;5142023;27;20130;-61
2023/04/30 05:18:49;;;;;;;10.07;6.28;;;;;;;;;;5143536;27;20058;-61
2023/04/30 05:21:16;;;;;;;12.40;7.47;;;;;;;;;;5157080;27;20047;-60
2023/04/30 05:23:43;;;;;;;10.93;6.15;;;;;;;;;;5163878;27;20075;-61
2023/04/30 05:26:09;;;;;;;13.07;6.43;;;;;;;;;;5164693;27;20528;-60
2023/04/30 05:28:35;;;;;;;10.80;6.30;;;;;;;;;;5164406;27;20504;-59
2023/04/30 05:31:02;;;;;;;10.23;6.53;;;;;;;;;;5164743;27;20108;-60
2023/04/30 05:33:29;;;;;;;7.00;5.72;;;;;;;;;;5167036;27;20558;-60
2023/04/30 05:35:55;;;;;;;10.65;6.60;;;;;;;;;;5144318;27;20086;-60
2023/04/30 05:38:22;;;;;;;9.57;6.47;;;;;;;;;;5167818;27;20137;-60
2023/04/30 05:40:48;;;;;;;10.25;6.80;;;;;;;;;;5167510;27;20638;-61
2023/04/30 05:43:14;;;;;;;12.02;6.50;;;;;;;;;;5160722;27;20469;-63
2023/04/30 05:45:41;;;;;;;11.00;6.18;;;;;;;;;;5165780;27;20060;-61
2023/04/30 05:48:07;;;;;;;9.18;6.10;;;;;;;;;;5156275;27;20047;-60
2023/04/30 05:50:34;;;;;;;11.00;6.57;;;;;;;;;;5159245;27;20057;-60
2023/04/30 05:53:00;;;;;;;12.65;7.18;;;;;;;;;;5167047;27;20068;-61
2023/04/30 05:55:26;;;;;;;8.63;6.18;;;;;;;;;;5168342;27;20051;-61
2023/04/30 05:57:53;;;;;;;9.45;6.18;;;;;;;;;;5166128;27;20081;-61
2023/04/30 06:00:19;;;;;;;9.45;6.28;;;;;;;;;;5164958;27;20548;-63
2023/04/30 06:02:46;;;;;;;12.80;6.40;;;;;;;;;;5164106;27;20069;-60
2023/04/30 06:05:12;;;;;;;11.10;6.35;;;;;;;;;;5167362;27;20047;-61
2023/04/30 06:07:41;;;;;;;9.23;7.03;;;;;;;;;;5165957;27;20057;-61
2023/04/30 06:10:08;;;;;;;11.10;5.85;;;;;;;;;;5166691;27;20070;-60
2023/04/30 06:12:34;;;;;;;10.93;6.72;;;;;;;;;;5167608;27;20055;-61
2023/04/30 06:15:01;;;;;;;9.32;6.53;;;;;;;;;;5166808;27;20512;-61
2023/04/30 06:17:28;;;;;;;10.30;5.72;;;;;;;;;;5164273;27;20047;-61
2023/04/30 06:19:54;;;;;;;9.55;5.97;;;;;;;;;;5162825;27;20562;-60
2023/04/30 06:22:21;;;;;;;11.90;5.93;;;;;;;;;;5164754;27;20609;-60
2023/04/30 06:24:47;;;;;;;7.32;5.65;;;;;;;;;;5166978;27;20149;-61
2023/04/30 06:27:14;;;;;;;10.80;6.35;;;;;;;;;;5166548;27;20078;-61
2023/04/30 06:29:41;;;;;;;8.13;5.80;;;;;;;;;;5164155;27;20043;-62
2023/04/30 06:32:07;;;;;;;9.88;6.32;;;;;;;;;;5163256;27;20062;-60
2023/04/30 06:34:34;;;;;;;9.82;6.22;;;;;;;;;;5166126;27;20063;-60
2023/04/30 06:37:00;;;;;;;8.05;5.35;;;;;;;;;;5165127;27;20660;-59
2023/04/30 06:39:26;;;;;;;10.63;6.50;;;;;;;;;;5165078;27;20094;-60
2023/04/30 06:41:53;;;;;;;10.30;5.97;;;;;;;;;;5166432;27;20496;-60
2023/04/30 06:44:19;;;;;;;10.20;5.80;;;;;;;;;;5166512;27;20131;-60
2023/04/30 06:46:45;;;;;;;8.88;6.20;;;;;;;;;;5164704;27;20051;-60
2023/04/30 06:49:12;;;;;;;8.27;5.78;;;;;;;;;;5165540;27;20469;-59
2023/04/30 06:51:41;;;;;;;8.50;5.18;;;;;;;;;;5165886;27;20116;-60
2023/04/30 06:54:08;;;;;;;9.00;5.60;;;;;;;;;;5166594;27;20058;-60
2023/04/30 06:56:34;;;;;;;10.85;5.97;;;;;;;;;;5164302;27;20058;-60
2023/04/30 06:59:00;;;;;;;16.00;6.15;;;;;;;;;;5165132;27;20635;-60
2023/04/30 07:01:27;;;;;;;13.27;5.32;;;;;;;;;;5165768;27;20062;-60
2023/04/30 07:03:54;;;;;;;10.00;5.00;;;;;;;;;;5166383;27;20394;-60
2023/04/30 07:06:21;;;;;;;9.27;5.78;;;;;;;;;;5165030;27;20119;-60
2023/04/30 07:08:47;;;;;;;14.18;6.40;;;;;;;;;;5165430;27;20648;-60
2023/04/30 07:11:14;;;;;;;12.98;5.32;;;;;;;;;;5166837;27;20043;-60
2023/04/30 07:13:40;;;;;;;10.50;4.82;;;;;;;;;;5163919;27;20047;-60
2023/04/30 07:16:09;;;;;;;8.73;5.40;;;;;;;;;;5165980;27;20142;-60
2023/04/30 07:18:36;;;;;;;6.85;5.07;;;;;;;;;;5165810;27;20054;-60
2023/04/30 07:21:03;;;;;;;8.98;5.20;;;;;;;;;;5166063;27;20124;-60
2023/04/30 07:23:29;;;;;;;9.05;5.40;;;;;;;;;;5165798;27;20058;-60
2023/04/30 07:25:56;;;;;;;7.03;4.78;;;;;;;;;;5165435;27;20134;-59
2023/04/30 07:28:22;;;;;;;10.50;5.63;;;;;;;;;;5162502;27;20050;-60
2023/04/30 07:30:49;;;;;;;9.35;5.57;;;;;;;;;;5163255;27;20051;-60
2023/04/30 07:33:15;;;;;;;8.57;5.18;;;;;;;;;;5165752;27;20050;-60
2023/04/30 07:35:41;;;;;;;10.57;5.75;;;;;;;;;;5165038;27;20860;-60
2023/04/30 07:38:08;;;;;;;9.60;5.95;;;;;;;;;;5155504;27;20054;-60
2023/04/30 07:40:34;;;;;;;7.95;5.18;;;;;;;;;;5163505;27;20086;-60
2023/04/30 07:43:02;;;;;;;6.75;4.78;;;;;;;;;;5163600;27;20050;-60
2023/04/30 07:45:30;;;;;;;6.70;5.00;;;;;;;;;;5165169;27;20054;-60
2023/04/30 07:47:57;;;;;;;7.13;5.05;;;;;;;;;;5163491;27;20140;-60
2023/04/30 07:50:24;;;;;;;8.63;5.03;;;;;;;;;;5164925;27;20039;-60
2023/04/30 07:52:50;;;;;;;11.27;5.25;;;;;;;;;;5166409;27;20493;-60
2023/04/30 07:55:17;;;;;;;8.20;5.03;;;;;;;;;;5164873;27;20522;-58
2023/04/30 07:57:43;;;;;;;7.45;4.72;;;;;;;;;;5164250;27;20416;-59
2023/04/30 08:00:10;;;;;;;9.25;5.78;;;;;;;;;;5163665;27;20055;-60
2023/04/30 08:02:36;;;;;;;6.97;5.47;;;;;;;;;;5160077;27;20092;-60
2023/04/30 08:05:03;;;;;;;12.10;5.45;;;;;;;;;;5165520;27;20055;-60
2023/04/30 08:07:29;;;;;;;12.25;6.43;;;;;;;;;;5163306;27;20086;-61
2023/04/30 08:09:55;;;;;;;6.88;4.95;;;;;;;;;;5164032;27;20142;-60
2023/04/30 08:12:22;;;;;;;7.07;4.70;;;;;;;;;;5164875;27;20570;-59
2023/04/30 08:14:49;;;;;;;6.80;4.60;;;;;;;;;;5164615;27;20061;-60
2023/04/30 08:17:15;;;;;;;5.63;4.60;;;;;;;;;;5161692;27;20159;-60
2023/04/30 08:19:41;;;;;;;5.93;4.55;;;;;;;;;;5148215;27;20552;-60
2023/04/30 08:22:08;;;;;;;8.00;5.00;;;;;;;;;;5159820;27;20494;-61
2023/04/30 08:24:34;;;;;;;7.03;4.38;;;;;;;;;;5152630;27;20142;-60
2023/04/30 08:27:02;;;;;;;7.93;4.57;;;;;;;;;;5157564;27;20524;-60
2023/04/30 08:29:29;;;;;;;11.82;5.28;;;;;;;;;;5164826;27;20046;-61
2023/04/30 08:31:56;;;;;;;7.50;5.45;;;;;;;;;;5164919;27;20077;-60
2023/04/30 08:34:24;;;;;;;5.90;5.20;;;;;;;;;;5166590;27;20046;-60
2023/04/30 08:36:50;;;;;;;8.57;5.25;;;;;;;;;;5147014;27;20499;-60
2023/04/30 08:39:17;;;;;;;8.95;5.00;;;;;;;;;;5165738;27;20054;-60
2023/04/30 08:41:45;;;;;;;7.78;4.55;;;;;;;;;;5162963;27;20192;-60
2023/04/30 08:44:12;;;;;;;6.25;4.50;;;;;;;;;;5165778;27;20050;-59
2023/04/30 08:46:40;;;;;;;6.63;4.95;;;;;;;;;;5161506;27;20138;-60
2023/04/30 08:49:06;;;;;;;6.03;4.95;;;;;;;;;;5144223;27;20096;-61
2023/04/30 08:51:34;;;;;;;8.05;4.55;;;;;;;;;;5154279;27;20615;-60
2023/04/30 08:54:00;;;;;;;8.02;4.43;;;;;;;;;;5165155;27;20417;-60
2023/04/30 08:56:28;;;;;;;9.07;4.18;;;;;;;;;;5161880;27;20071;-60
2023/04/30 08:58:55;;;;;;;6.05;4.32;;;;;;;;;;5161195;27;20216;-60
2023/04/30 09:01:22;;;;;;;6.18;4.40;;;;;;;;;;5143849;27;20082;-60
2023/04/30 09:03:48;;;;;;;9.00;4.57;;;;;;;;;;5144289;27;20578;-60
2023/04/30 09:06:15;;;;;;;8.40;3.90;;;;;;;;;;5145075;27;20062;-61
2023/04/30 09:08:43;;;;;;;13.48;5.13;;;;;;;;;;5164865;27;20137;-60
2023/04/30 09:11:24;;;;;;;8.45;4.25;;;;;;;;;;5165392;27;20047;-61
2023/04/30 09:13:52;;;;;;;11.07;4.05;;;;;;;;;;5137043;27;20481;-60
2023/04/30 09:16:19;;;;;;;6.28;3.53;;;;;;;;;;5164565;27;20666;-60
2023/04/30 09:18:46;;;;;;;7.07;3.47;;;;;;;;;;5146082;27;20051;-60
2023/04/30 09:21:13;;;;;;;5.45;3.92;;;;;;;;;;5162306;27;20054;-60
2023/04/30 09:23:56;;;;;;;4.57;3.03;;;;;;;;;;5164857;27;20054;-60
2023/04/30 09:26:26;;;;;;;5.78;2.78;;;;;;;;;;5162931;27;20082;-61
2023/04/30 09:28:54;;;;;;;5.10;2.72;;;;;;;;;;5163562;27;20051;-61
2023/04/30 09:31:20;;;;;;;5.47;3.05;;;;;;;;;;5153522;27;20475;-61
2023/04/30 09:33:47;;;;;;;5.78;3.28;;;;;;;;;;5157048;27;20337;-65
2023/04/30 09:36:14;;;;;;;9.38;3.35;;;;;;;;;;5161921;27;20055;-60
2023/04/30 09:38:40;;;;;;;4.35;3.22;;;;;;;;;;5164384;27;20137;-60
2023/04/30 09:41:19;;;;;;;7.63;3.17;;;;;;;;;;5163698;27;20502;-59
2023/04/30 09:43:46;;;;;;;5.65;3.35;;;;;;;;;;5163821;27;20084;-61
2023/04/30 09:46:13;;;;;;;4.93;3.30;;;;;;;;;;5163139;27;20047;-60
2023/04/30 09:48:40;;;;;;;2.88;2.58;;;;;;;;;;5164356;27;20546;-60
2023/04/30 09:51:06;;;;;;;2.90;2.60;;;;;;;;;;5163154;27;20051;-60
2023/04/30 09:53:35;;;;;;;4.78;3.08;;;;;;;;;;5164143;27;20423;-60
2023/04/30 09:56:05;;;;;;;5.25;3.03;;;;;;;;;;5162750;27;20473;-61
2023/04/30 09:58:35;;;;;;;2.75;2.45;;;;;;;;;;5163145;27;20062;-60
2023/04/30 10:01:03;;;;;;;4.03;3.10;;;;;;;;;;5164650;27;20061;-60
2023/04/30 10:03:30;;;;;;;7.18;3.25;;;;;;;;;;5164648;27;20067;-59
2023/04/30 10:05:56;;;;;;;4.50;3.35;;;;;;;;;;5165071;27;20127;-60
2023/04/30 10:08:23;;;;;;;6.22;3.22;;;;;;;;;;5164043;27;20047;-60
2023/04/30 10:10:51;;;;;;;4.35;2.95;;;;;;;;;;5161167;27;20046;-59
2023/04/30 10:13:19;;;;;;;4.80;3.20;;;;;;;;;;5160934;27;20128;-60
2023/04/30 10:15:48;;;;;;;5.30;3.03;;;;;;;;;;5167710;27;20055;-60
2023/04/30 10:18:19;;;;;;;6.45;3.63;;;;;;;;;;5168043;27;20572;-60
2023/04/30 10:20:46;;;;;;;8.75;4.07;;;;;;;;;;5165034;27;20118;-60
2023/04/30 10:23:13;;;;;;;3.95;2.88;;;;;;;;;;5159629;27;20142;-59
2023/04/30 10:25:40;;;;;;;5.40;3.10;;;;;;;;;;5164766;27;20589;-60
2023/04/30 10:28:07;;;;;;;4.82;3.33;;;;;;;;;;5159846;27;20053;-61
2023/04/30 10:30:34;;;;;;;5.68;3.20;;;;;;;;;;5149065;27;20054;-59
2023/04/30 10:33:00;;;;;;;5.03;3.20;;;;;;;;;;5166812;27;20058;-59
2023/04/30 10:35:33;;;;;;;8.95;3.17;;;;;;;;;;5148765;27;20059;-58
2023/04/30 10:38:00;;;;;;;3.75;2.28;;;;;;;;;;5163316;27;20063;-58
2023/04/30 10:40:27;;;;;;;3.70;2.60;;;;;;;;;;5146826;27;20460;-59
2023/04/30 10:42:56;;;;;;;5.78;2.78;;;;;;;;;;5159776;27;20122;-59
2023/04/30 10:45:49;;;;;;;3.58;2.78;;;;;;;;;;5167736;27;20047;-58
2023/04/30 10:48:23;;;;;;;4.85;3.00;;;;;;;;;;5142788;27;20059;-59
2023/04/30 10:50:50;;;;;;;7.43;2.65;;;;;;;;;;5146560;27;20059;-58
2023/04/30 10:53:17;;;;;;;3.10;2.40;;;;;;;;;;5151064;27;20108;-58
2023/04/30 10:55:50;;;;;;;2.85;2.60;;;;;;;;;;5142895;27;20170;-59
2023/04/30 10:58:26;;;;;;;3.28;2.83;;;;;;;;;;5145958;27;20051;-58
2023/04/30 11:01:00;;;;;;;3.92;2.97;;;;;;;;;;5146625;27;20146;-59
2023/04/30 11:03:30;;;;;;;5.10;2.75;;;;;;;;;;5146522;27;20047;-59
2023/04/30 11:05:57;;;;;;;6.45;2.75;;;;;;;;;;5155028;27;20057;-44
2023/04/30 11:08:37;;;;;;;3.35;2.67;;;;;;;;;;5165152;27;20514;-59
2023/04/30 11:11:06;;;;;;;4.38;2.78;;;;;;;;;;5166026;27;20174;-58
2023/04/30 11:13:40;;;;;;;4.13;2.58;;;;;;;;;;5166839;27;20054;-58
2023/04/30 11:16:07;;;;;;;4.80;2.92;;;;;;;;;;5166931;27;20089;-58
2023/04/30 11:18:39;;;;;;;4.85;3.22;;;;;;;;;;5167053;27;20497;-58
2023/04/30 11:21:07;;;;;;;6.97;2.92;;;;;;;;;;5163145;27;20050;-59
2023/04/30 11:23:34;;;;;;;4.10;2.83;;;;;;;;;;5164494;27;20046;-62
2023/04/30 11:26:07;;;;;;;3.65;2.80;;;;;;;;;;5163945;27;20065;-60
2023/04/30 11:28:35;;;;;;;4.65;2.20;;;;;;;;;;5163305;27;20057;-61
2023/04/30 11:31:01;;;;;;;4.45;2.38;;;;;;;;;;5165545;27;20050;-61
2023/04/30 11:33:32;;;;;;;3.95;2.70;;;;;;;;;;5166881;27;20067;-62
2023/04/30 11:35:59;;;;;;;2.65;2.30;;;;;;;;;;5165123;27;20582;-61
2023/04/30 11:38:35;;;;;;;4.25;2.83;;;;;;;;;;5164550;27;20050;-60
2023/04/30 11:41:02;;;;;;;3.72;2.65;;;;;;;;;;5165926;27;20051;-60
2023/04/30 11:43:30;;;;;;;3.38;2.92;;;;;;;;;;5166387;27;20134;-60
2023/04/30 11:46:03;;;;;;;6.88;2.83;;;;;;;;;;5167072;27;20046;-60
2023/04/30 11:48:30;;;;;;;3.60;2.30;;;;;;;;;;5142645;27;20059;-61
2023/04/30 11:50:56;;;;;;;3.45;2.20;;;;;;;;;;5153932;27;20046;-61
2023/04/30 11:53:28;;;;;;;2.88;2.22;;;;;;;;;;5166761;27;20047;-61
2023/04/30 11:55:54;;;;;;;5.53;2.65;;;;;;;;;;5177646;27;20137;-58
2023/04/30 11:58:21;;;;;;;3.47;2.30;;;;;;;;;;5176422;27;20050;-58
2023/04/30 12:00:50;;;;;;;4.90;2.80;;;;;;;;;;5162789;27;20460;-59
2023/04/30 12:03:17;;;;;;;3.50;2.53;;;;;;;;;;5144783;27;20051;-59
2023/04/30 12:05:44;;;;;;;4.18;2.63;;;;;;;;;;5147548;27;20086;-36
2023/04/30 12:08:11;;;;;;;5.88;2.38;;;;;;;;;;5163912;27;20050;-59
2023/04/30 12:10:38;;;;;;;5.75;2.50;;;;;;;;;;5163134;27;20492;-60
2023/04/30 12:13:04;;;;;;;5.75;2.78;;;;;;;;;;5165673;27;20055;-59
2023/04/30 12:15:32;;;;;;;3.75;2.63;;;;;;;;;;5164203;27;20568;-59
2023/04/30 12:17:58;;;;;;;3.55;2.35;;;;;;;;;;5166606;27;20086;-60
2023/04/30 12:20:26;;;;;;;2.92;2.30;;;;;;;;;;5166235;27;20510;-58
2023/04/30 12:22:53;;;;;;;2.60;1.60;;;;;;;;;;5166132;27;20104;-59
2023/04/30 12:25:21;;;;;;;3.08;2.30;;;;;;;;;;5165491;27;20518;-59
2023/04/30 12:27:48;;;;;;;6.05;2.42;;;;;;;;;;5165091;27;20054;-60
2023/04/30 12:30:18;;;;;;;2.72;2.00;;;;;;;;;;5164769;27;20078;-58
2023/04/30 12:32:45;;;;;;;1.80;1.70;;;;;;;;;;5163652;27;20567;-59
2023/04/30 12:35:15;;;;;;;3.90;2.13;;;;;;;;;;5164933;27;20051;-59
2023/04/30 12:37:43;;;;;;;3.72;2.00;;;;;;;;;;5164856;27;20046;-59
2023/04/30 12:40:10;;;;;;;2.40;2.00;;;;;;;;;;5163513;27;20058;-59
2023/04/30 12:42:36;;;;;;;3.03;1.88;;;;;;;;;;5164790;27;20047;-59
2023/04/30 12:45:03;;;;;;;2.28;1.80;;;;;;;;;;5166027;27;20070;-59
2023/04/30 12:47:29;;;;;;;2.40;1.30;;;;;;;;;;5171030;27;20127;-59
2023/04/30 12:49:56;;;;;;;1.67;1.35;;;;;;;;;;5162510;27;20533;-59
2023/04/30 12:52:25;;;;;;;1.98;1.30;;;;;;;;;;5151301;27;20055;-59
2023/04/30 12:54:53;;;;;;;1.98;1.73;;;;;;;;;;5155642;27;20054;-59
2023/04/30 12:57:20;;;;;;;2.90;1.58;;;;;;;;;;5164997;27;20533;-59
2023/04/30 12:59:52;;;;;;;1.88;1.30;;;;;;;;;;5165498;27;20047;-59
2023/04/30 13:02:22;;;;;;;2.17;1.60;;;;;;;;;;5165689;27;20418;-59
2023/04/30 13:04:50;;;;;;;3.65;1.40;;;;;;;;;;5184201;27;20084;-59
2023/04/30 13:07:16;;;;;;;1.85;1.70;;;;;;;;;;5179409;27;20061;-59
2023/04/30 13:09:43;;;;;;;1.30;1.20;;;;;;;;;;5163196;27;20453;-59
2023/04/30 13:12:09;;;;;;;1.90;0.98;;;;;;;;;;5165045;27;20061;-58
2023/04/30 13:14:36;;;;;;;2.20;1.50;;;;;;;;;;5165361;27;20055;-59
2023/04/30 13:17:05;;;;;;;3.53;1.40;;;;;;;;;;5164550;27;20557;-58
2023/04/30 13:19:32;;;;;;;2.38;1.20;;;;;;;;;;5163017;27;20580;-59
2023/04/30 13:22:00;;;;;;;1.48;1.30;;;;;;;;;;5164810;27;20167;-60
2023/04/30 13:24:26;;;;;;;1.45;1.30;;;;;;;;;;5165046;27;20130;-59
2023/04/30 13:26:53;;;;;;;3.47;1.65;;;;;;;;;;5165495;27;20050;-59
2023/04/30 13:29:19;;;;;;;2.42;1.60;;;;;;;;;;5165207;27;20122;-59
2023/04/30 13:31:47;;;;;;;2.47;1.27;;;;;;;;;;5164698;27;20051;-59
2023/04/30 13:34:14;;;;;;;1.83;1.40;;;;;;;;;;5165007;27;20135;-59
2023/04/30 13:36:40;;;;;;;1.77;1.25;;;;;;;;;;5163052;27;20150;-59
2023/04/30 13:39:07;;;;;;;2.80;1.60;;;;;;;;;;5162304;27;20513;-59
2023/04/30 13:41:33;;;;;;;3.20;1.25;;;;;;;;;;5163314;27;20500;-57
2023/04/30 13:44:00;;;;;;;2.80;1.20;;;;;;;;;;5164588;27;20051;-59
2023/04/30 13:46:26;;;;;;;2.78;1.50;;;;;;;;;;5164618;27;20066;-59
2023/04/30 13:48:53;;;;;;;2.90;1.58;;;;;;;;;;5166662;27;20058;-58
2023/04/30 13:51:19;;;;;;;2.55;1.50;;;;;;;;;;5165212;27;20080;-59
2023/04/30 13:53:46;;;;;;;3.72;1.40;;;;;;;;;;5166922;27;20051;-59
2023/04/30 13:56:14;;;;;;;2.03;1.67;;;;;;;;;;5167749;27;20086;-59
2023/04/30 13:58:40;;;;;;;3.30;1.50;;;;;;;;;;5166570;27;20062;-59
2023/04/30 14:01:07;;;;;;;3.67;1.52;;;;;;;;;;5166411;27;20141;-59
2023/04/30 14:03:34;;;;;;;2.92;1.40;;;;;;;;;;5164859;27;20050;-58
2023/04/30 14:06:00;;;;;;;1.80;1.27;;;;;;;;;;5164145;27;20051;-59
2023/04/30 14:08:27;;;;;;;1.90;1.20;;;;;;;;;;5168403;27;20047;-59
2023/04/30 14:10:53;;;;;;;3.33;1.50;;;;;;;;;;5167774;27;20050;-59
2023/04/30 14:13:20;;;;;;;4.10;1.42;;;;;;;;;;5167752;27;20323;-60
2023/04/30 14:15:46;;;;;;;1.77;1.40;;;;;;;;;;5164492;27;20053;-59
2023/04/30 14:18:13;;;;;;;1.90;1.20;;;;;;;;;;5166523;27;20051;-63
2023/04/30 14:20:40;;;;;;;2.28;1.58;;;;;;;;;;5164580;27;20047;-59
2023/04/30 14:23:07;;;;;;;2.63;1.50;;;;;;;;;;5166761;27;20054;-58
2023/04/30 14:25:33;;;;;;;3.85;1.70;;;;;;;;;;5167516;27;20123;-59
2023/04/30 14:28:00;;;;;;;2.55;1.42;;;;;;;;;;5143699;27;20082;-58
2023/04/30 14:30:26;;;;;;;2.85;1.25;;;;;;;;;;5164265;27;20537;-59
2023/04/30 14:32:53;;;;;;;1.88;1.40;;;;;;;;;;5162176;27;20108;-60
2023/04/30 14:35:20;;;;;;;2.25;1.05;;;;;;;;;;5165387;27;20050;-60
2023/04/30 14:37:46;;;;;;;1.02;0.90;;;;;;;;;;5160062;27;20051;-59
2023/04/30 14:40:13;;;;;;;1.05;0.95;;;;;;;;;;5167702;27;20550;-58